createdAt,value
2023-01-10T00:00:42.037Z,99.35
2023-01-10T00:01:41.946Z,99.46
2023-01-10T00:02:41.973Z,99.56
2023-01-10T00:03:41.908Z,99.56
2023-01-10T00:04:42.056Z,99.56
2023-01-10T00:05:41.899Z,99.66
2023-01-10T00:06:41.900Z,99.66
2023-01-10T00:07:41.894Z,99.66
2023-01-10T00:08:41.892Z,99.77
2023-01-10T00:09:41.838Z,99.77
2023-01-10T00:10:41.850Z,99.87
2023-01-10T00:11:41.801Z,99.98
2023-01-10T00:12:41.803Z,99.98
2023-01-10T00:13:41.766Z,99.98
2023-01-10T00:14:41.803Z,99.99
2023-01-10T00:15:41.774Z,99.99
2023-01-10T00:16:41.783Z,99.98
2023-01-10T00:17:41.715Z,99.99
2023-01-10T00:18:41.757Z,99.99
2023-01-10T00:19:41.728Z,99.99
2023-01-10T00:20:41.735Z,99.99
2023-01-10T00:21:41.668Z,99.99
2023-01-10T00:22:41.687Z,99.99
2023-01-10T00:23:41.650Z,99.99
2023-01-10T00:24:41.654Z,99.99
2023-01-10T00:25:41.645Z,99.99
2023-01-10T00:26:43.717Z,99.99
2023-01-10T00:27:41.620Z,99.99
2023-01-10T00:28:41.600Z,99.99
2023-01-10T00:29:41.566Z,99.99
2023-01-10T00:30:41.594Z,99.99
2023-01-10T00:31:41.562Z,99.99
2023-01-10T00:32:41.548Z,99.99
2023-01-10T00:33:41.519Z,99.99
2023-01-10T00:34:41.525Z,99.99
2023-01-10T00:35:41.511Z,99.99
2023-01-10T00:36:41.486Z,99.99
2023-01-10T00:37:41.466Z,99.99
2023-01-10T00:38:41.460Z,99.99
2023-01-10T00:39:41.438Z,99.99
2023-01-10T00:40:41.463Z,99.99
2023-01-10T00:41:41.405Z,99.99
2023-01-10T00:42:41.434Z,99.99
2023-01-10T00:43:41.390Z,99.99
2023-01-10T00:44:41.381Z,99.99
2023-01-10T00:45:41.391Z,99.99
2023-01-10T00:46:41.388Z,99.99
2023-01-10T00:47:41.335Z,99.99
2023-01-10T00:48:41.358Z,99.99
2023-01-10T00:49:41.304Z,99.99
2023-01-10T00:50:41.322Z,99.99
2023-01-10T00:51:41.272Z,99.99
2023-01-10T00:52:41.321Z,99.99
2023-01-10T00:53:41.271Z,99.99
2023-01-10T00:54:41.247Z,99.99
2023-01-10T00:55:41.254Z,99.99
2023-01-10T00:56:41.197Z,99.99
2023-01-10T00:57:41.243Z,99.99
2023-01-10T00:58:41.178Z,99.99
2023-01-10T00:59:41.208Z,99.99
2023-01-10T01:00:41.165Z,99.99
2023-01-10T01:01:41.359Z,99.99
2023-01-10T01:02:41.193Z,99.99
2023-01-10T01:03:41.143Z,99.99
2023-01-10T01:04:41.125Z,99.99
2023-01-10T01:05:41.112Z,99.99
2023-01-10T01:06:41.088Z,99.99
2023-01-10T01:07:41.093Z,99.99
2023-01-10T01:08:41.080Z,99.99
2023-01-10T01:09:41.083Z,99.99
2023-01-10T01:10:41.027Z,99.99
2023-01-10T01:11:41.043Z,99.99
2023-01-10T01:12:41.002Z,99.98
2023-01-10T01:13:41.037Z,99.87
2023-01-10T01:14:40.975Z,99.66
2023-01-10T01:15:41.034Z,99.25
2023-01-10T01:16:40.948Z,98.63
2023-01-10T01:17:40.978Z,98.16
2023-01-10T01:18:40.947Z,97.64
2023-01-10T01:19:40.935Z,97.54
2023-01-10T01:20:40.890Z,97.13
2023-01-10T01:21:40.914Z,96.92
2023-01-10T01:22:40.916Z,96.82
2023-01-10T01:23:40.896Z,96.82
2023-01-10T01:24:40.865Z,96.82
2023-01-10T01:25:40.862Z,96.72
2023-01-10T01:26:40.822Z,96.51
2023-01-10T01:27:40.863Z,96.30
2023-01-10T01:28:40.803Z,96.41
2023-01-10T01:29:43.522Z,96.41
2023-01-10T01:30:40.798Z,96.20
2023-01-10T01:31:40.826Z,96.09
2023-01-10T01:32:40.747Z,95.78
2023-01-10T01:33:40.813Z,95.57
2023-01-10T01:34:40.719Z,95.68
2023-01-10T01:35:40.735Z,95.78
2023-01-10T01:36:40.715Z,95.78
2023-01-10T01:37:40.708Z,95.78
2023-01-10T01:38:40.678Z,95.68
2023-01-10T01:39:40.684Z,95.68
2023-01-10T01:40:40.642Z,95.68
2023-01-10T01:41:40.659Z,95.68
2023-01-10T01:42:40.624Z,95.78
2023-01-10T01:43:40.655Z,95.78
2023-01-10T01:44:40.588Z,95.89
2023-01-10T01:45:40.599Z,95.78
2023-01-10T01:46:40.602Z,95.78
2023-01-10T01:47:40.579Z,95.78
2023-01-10T01:48:40.586Z,95.78
2023-01-10T01:49:40.587Z,95.89
2023-01-10T01:50:40.522Z,95.78
2023-01-10T01:51:40.527Z,95.89
2023-01-10T01:52:40.550Z,95.89
2023-01-10T01:53:40.500Z,95.89
2023-01-10T01:54:40.452Z,95.78
2023-01-10T01:55:40.471Z,95.89
2023-01-10T01:56:40.428Z,95.78
2023-01-10T01:57:40.474Z,95.83
2023-01-10T01:58:40.409Z,95.83
2023-01-10T01:59:40.429Z,95.83
2023-01-10T02:00:40.377Z,95.83
2023-01-10T02:01:40.649Z,95.78
2023-01-10T02:02:41.429Z,95.94
2023-01-10T02:03:40.420Z,95.94
2023-01-10T02:04:40.352Z,95.94
2023-01-10T02:05:40.348Z,95.94
2023-01-10T02:06:40.301Z,96.03
2023-01-10T02:07:40.319Z,96.14
2023-01-10T02:08:40.306Z,96.24
2023-01-10T02:09:40.291Z,96.24
2023-01-10T02:10:40.281Z,96.34
2023-01-10T02:11:40.257Z,96.34
2023-01-10T02:12:40.229Z,96.45
2023-01-10T02:13:40.231Z,96.45
2023-01-10T02:14:40.186Z,96.45
2023-01-10T02:15:40.255Z,96.55
2023-01-10T02:16:40.167Z,96.66
2023-01-10T02:17:40.195Z,96.66
2023-01-10T02:18:40.175Z,96.66
2023-01-10T02:19:40.159Z,96.66
2023-01-10T02:20:40.137Z,96.55
2023-01-10T02:21:40.128Z,96.55
2023-01-10T02:22:40.089Z,96.45
2023-01-10T02:23:40.111Z,96.55
2023-01-10T02:24:40.089Z,96.66
2023-01-10T02:25:40.114Z,96.76
2023-01-10T02:26:40.048Z,96.86
2023-01-10T02:27:40.047Z,96.97
2023-01-10T02:28:40.023Z,97.07
2023-01-10T02:29:40.060Z,97.17
2023-01-10T02:30:39.993Z,97.28
2023-01-10T02:31:40.003Z,97.28
2023-01-10T02:32:48.035Z,97.49
2023-01-10T02:33:40.028Z,97.59
2023-01-10T02:34:39.944Z,97.69
2023-01-10T02:35:39.940Z,97.79
2023-01-10T02:36:39.903Z,97.79
2023-01-10T02:37:39.928Z,97.89
2023-01-10T02:38:39.906Z,98.00
2023-01-10T02:39:39.893Z,98.10
2023-01-10T02:40:39.853Z,98.21
2023-01-10T02:41:39.880Z,98.31
2023-01-10T02:42:39.828Z,98.31
2023-01-10T02:43:39.882Z,98.31
2023-01-10T02:44:39.815Z,98.41
2023-01-10T02:45:39.831Z,98.52
2023-01-10T02:46:39.808Z,98.62
2023-01-10T02:47:39.796Z,98.72
2023-01-10T02:48:39.847Z,98.83
2023-01-10T02:49:39.774Z,98.93
2023-01-10T02:50:39.767Z,99.04
2023-01-10T02:51:39.759Z,99.14
2023-01-10T02:52:39.697Z,99.14
2023-01-10T02:53:39.728Z,99.24
2023-01-10T02:54:39.706Z,99.24
2023-01-10T02:55:39.718Z,99.34
2023-01-10T02:56:39.646Z,99.34
2023-01-10T02:57:39.687Z,99.44
2023-01-10T02:58:39.623Z,99.55
2023-01-10T02:59:39.645Z,99.55
2023-01-10T03:00:39.599Z,99.55
2023-01-10T03:01:39.698Z,99.65
2023-01-10T03:02:39.598Z,99.65
2023-01-10T03:03:39.585Z,99.76
2023-01-10T03:04:39.604Z,99.86
2023-01-10T03:05:39.628Z,99.86
2023-01-10T03:06:39.540Z,99.86
2023-01-10T03:07:39.553Z,99.86
2023-01-10T03:08:39.494Z,99.86
2023-01-10T03:09:39.513Z,99.86
2023-01-10T03:10:39.476Z,99.86
2023-01-10T03:11:39.511Z,99.86
2023-01-10T03:12:39.467Z,99.76
2023-01-10T03:13:39.457Z,99.76
2023-01-10T03:14:39.452Z,99.65
2023-01-10T03:15:39.427Z,99.65
2023-01-10T03:16:39.424Z,99.65
2023-01-10T03:17:39.415Z,99.65
2023-01-10T03:18:39.372Z,99.76
2023-01-10T03:19:39.370Z,99.76
2023-01-10T03:20:39.354Z,99.76
2023-01-10T03:21:39.375Z,99.76
2023-01-10T03:22:39.327Z,99.76
2023-01-10T03:23:39.335Z,99.76
2023-01-10T03:24:39.295Z,99.76
2023-01-10T03:25:39.366Z,99.76
2023-01-10T03:26:39.259Z,99.76
2023-01-10T03:27:39.277Z,99.65
2023-01-10T03:28:39.257Z,99.65
2023-01-10T03:29:39.241Z,99.65
2023-01-10T03:30:39.222Z,99.65
2023-01-10T03:31:39.262Z,99.65
2023-01-10T03:32:39.182Z,99.65
2023-01-10T03:33:39.205Z,99.55
2023-01-10T03:34:39.198Z,99.55
2023-01-10T03:35:39.234Z,99.55
2023-01-10T03:36:39.128Z,99.55
2023-01-10T03:37:39.163Z,99.55
2023-01-10T03:38:39.107Z,99.55
2023-01-10T03:39:39.145Z,99.55
2023-01-10T03:40:39.075Z,99.55
2023-01-10T03:41:39.089Z,99.55
2023-01-10T03:42:39.078Z,99.65
2023-01-10T03:43:39.072Z,99.65
2023-01-10T03:44:39.031Z,99.65
2023-01-10T03:45:39.028Z,99.65
2023-01-10T03:46:39.048Z,99.65
2023-01-10T03:47:39.020Z,99.51
2023-01-10T03:48:39.002Z,99.61
2023-01-10T03:49:38.986Z,99.51
2023-01-10T03:50:38.943Z,99.51
2023-01-10T03:51:38.955Z,99.51
2023-01-10T03:52:38.944Z,99.40
2023-01-10T03:53:38.947Z,99.30
2023-01-10T03:54:38.893Z,99.19
2023-01-10T03:55:38.903Z,99.24
2023-01-10T03:56:38.888Z,99.19
2023-01-10T03:57:38.882Z,99.24
2023-01-10T03:58:38.866Z,99.14
2023-01-10T03:59:38.853Z,99.14
2023-01-10T04:00:38.827Z,99.14
2023-01-10T04:01:39.020Z,99.14
2023-01-10T04:02:38.867Z,99.14
2023-01-10T04:03:38.905Z,99.04
2023-01-10T04:04:38.761Z,98.93
2023-01-10T04:05:38.767Z,98.93
2023-01-10T04:06:38.760Z,98.83
2023-01-10T04:07:38.768Z,98.72
2023-01-10T04:08:38.743Z,98.62
2023-01-10T04:09:38.747Z,98.62
2023-01-10T04:10:38.696Z,98.52
2023-01-10T04:11:38.702Z,98.31
2023-01-10T04:12:38.678Z,98.21
2023-01-10T04:13:38.667Z,98.10
2023-01-10T04:14:38.667Z,98.00
2023-01-10T04:15:38.640Z,98.00
2023-01-10T04:16:38.604Z,98.00
2023-01-10T04:17:38.617Z,97.89
2023-01-10T04:18:38.589Z,97.89
2023-01-10T04:19:38.611Z,97.79
2023-01-10T04:20:38.557Z,97.79
2023-01-10T04:21:38.567Z,97.69
2023-01-10T04:22:38.562Z,97.69
2023-01-10T04:23:38.552Z,97.59
2023-01-10T04:24:38.539Z,97.49
2023-01-10T04:25:38.520Z,97.38
2023-01-10T04:26:38.494Z,97.38
2023-01-10T04:27:38.484Z,97.38
2023-01-10T04:28:38.454Z,97.38
2023-01-10T04:29:38.473Z,97.28
2023-01-10T04:30:38.456Z,97.17
2023-01-10T04:31:38.491Z,97.17
2023-01-10T04:32:38.421Z,97.07
2023-01-10T04:33:38.437Z,97.07
2023-01-10T04:34:38.388Z,96.86
2023-01-10T04:35:38.396Z,96.76
2023-01-10T04:36:38.365Z,96.66
2023-01-10T04:37:38.396Z,96.55
2023-01-10T04:38:38.326Z,96.55
2023-01-10T04:39:38.369Z,96.45
2023-01-10T04:40:38.337Z,96.34
2023-01-10T04:41:38.333Z,96.14
2023-01-10T04:42:38.282Z,95.94
2023-01-10T04:43:38.322Z,95.62
2023-01-10T04:44:38.251Z,95.52
2023-01-10T04:45:38.323Z,95.31
2023-01-10T04:46:38.219Z,95.21
2023-01-10T04:47:38.237Z,95.10
2023-01-10T04:48:38.228Z,94.90
2023-01-10T04:49:38.231Z,94.90
2023-01-10T04:50:38.195Z,94.90
2023-01-10T04:51:38.184Z,94.79
2023-01-10T04:52:38.149Z,94.79
2023-01-10T04:53:38.172Z,94.69
2023-01-10T04:54:38.126Z,94.69
2023-01-10T04:55:38.156Z,94.69
2023-01-10T04:56:38.095Z,94.69
2023-01-10T04:57:38.109Z,94.48
2023-01-10T04:58:38.068Z,94.48
2023-01-10T04:59:38.097Z,94.48
2023-01-10T05:00:38.052Z,94.59
2023-01-10T05:01:38.081Z,94.69
2023-01-10T05:02:38.067Z,94.69
2023-01-10T05:03:38.029Z,94.69
2023-01-10T05:04:38.017Z,94.69
2023-01-10T05:05:38.037Z,94.79
2023-01-10T05:06:37.990Z,94.90
2023-01-10T05:07:37.964Z,94.90
2023-01-10T05:08:37.924Z,95.00
2023-01-10T05:09:37.949Z,95.00
2023-01-10T05:10:37.966Z,95.00
2023-01-10T05:11:37.921Z,95.00
2023-01-10T05:12:37.905Z,94.90
2023-01-10T05:13:37.866Z,94.90
2023-01-10T05:14:37.870Z,95.00
2023-01-10T05:15:37.869Z,95.00
2023-01-10T05:16:37.906Z,95.10
2023-01-10T05:17:37.812Z,95.00
2023-01-10T05:18:37.847Z,95.00
2023-01-10T05:19:37.793Z,95.00
2023-01-10T05:20:37.829Z,95.00
2023-01-10T05:21:37.783Z,94.90
2023-01-10T05:22:37.779Z,94.90
2023-01-10T05:23:37.739Z,94.90
2023-01-10T05:24:37.751Z,95.00
2023-01-10T05:25:37.728Z,95.10
2023-01-10T05:26:37.767Z,95.00
2023-01-10T05:27:37.687Z,95.00
2023-01-10T05:28:37.716Z,95.00
2023-01-10T05:29:37.657Z,95.10
2023-01-10T05:30:37.673Z,95.10
2023-01-10T05:31:37.731Z,95.21
2023-01-10T05:32:37.649Z,95.21
2023-01-10T05:33:37.641Z,95.21
2023-01-10T05:34:37.652Z,95.21
2023-01-10T05:35:37.603Z,95.21
2023-01-10T05:36:37.600Z,95.21
2023-01-10T05:37:38.214Z,95.21
2023-01-10T05:38:37.580Z,95.21
2023-01-10T05:39:37.546Z,95.21
2023-01-10T05:40:37.546Z,95.31
2023-01-10T05:41:37.515Z,95.21
2023-01-10T05:42:37.527Z,95.21
2023-01-10T05:43:37.489Z,95.21
2023-01-10T05:44:37.516Z,95.10
2023-01-10T05:45:37.465Z,95.21
2023-01-10T05:46:37.472Z,95.21
2023-01-10T05:47:37.441Z,95.21
2023-01-10T05:48:37.476Z,95.42
2023-01-10T05:49:37.428Z,95.42
2023-01-10T05:50:37.448Z,95.31
2023-01-10T05:51:37.374Z,95.21
2023-01-10T05:52:37.392Z,95.10
2023-01-10T05:53:37.391Z,95.21
2023-01-10T05:54:37.363Z,95.21
2023-01-10T05:55:37.352Z,95.21
2023-01-10T05:56:37.337Z,95.21
2023-01-10T05:57:37.285Z,95.21
2023-01-10T05:58:37.312Z,95.10
2023-01-10T05:59:37.312Z,95.10
2023-01-10T06:00:37.303Z,95.21
2023-01-10T06:01:37.257Z,95.10
2023-01-10T06:02:37.355Z,95.10
2023-01-10T06:03:37.220Z,95.00
2023-01-10T06:04:37.294Z,94.90
2023-01-10T06:05:37.209Z,95.00
2023-01-10T06:06:37.232Z,95.00
2023-01-10T06:07:37.175Z,95.00
2023-01-10T06:08:37.243Z,95.00
2023-01-10T06:09:37.144Z,95.00
2023-01-10T06:10:37.146Z,94.90
2023-01-10T06:11:37.151Z,94.79
2023-01-10T06:12:37.131Z,94.69
2023-01-10T06:13:37.099Z,94.65
2023-01-10T06:14:37.091Z,94.69
2023-01-10T06:15:37.145Z,94.69
2023-01-10T06:16:37.123Z,94.69
2023-01-10T06:17:37.039Z,94.79
2023-01-10T06:18:37.048Z,94.79
2023-01-10T06:19:37.015Z,94.85
2023-01-10T06:20:37.026Z,95.00
2023-01-10T06:21:37.002Z,94.90
2023-01-10T06:22:37.006Z,95.00
2023-01-10T06:23:36.972Z,95.10
2023-01-10T06:24:36.985Z,95.00
2023-01-10T06:25:36.959Z,95.00
2023-01-10T06:26:36.964Z,95.00
2023-01-10T06:27:36.954Z,94.90
2023-01-10T06:28:36.915Z,94.90
2023-01-10T06:29:36.884Z,95.00
2023-01-10T06:30:36.908Z,95.00
2023-01-10T06:31:36.894Z,95.00
2023-01-10T06:32:36.879Z,94.90
2023-01-10T06:33:36.852Z,94.90
2023-01-10T06:34:36.904Z,94.90
2023-01-10T06:35:36.810Z,95.00
2023-01-10T06:36:36.878Z,95.00
2023-01-10T06:37:36.771Z,95.00
2023-01-10T06:38:36.795Z,95.10
2023-01-10T06:39:36.780Z,95.10
2023-01-10T06:40:36.779Z,95.00
2023-01-10T06:41:36.723Z,95.10
2023-01-10T06:42:36.741Z,95.00
2023-01-10T06:43:36.718Z,95.00
2023-01-10T06:44:36.770Z,95.10
2023-01-10T06:45:36.692Z,94.90
2023-01-10T06:46:36.678Z,94.79
2023-01-10T06:47:36.672Z,94.69
2023-01-10T06:48:36.647Z,94.79
2023-01-10T06:49:36.657Z,94.79
2023-01-10T06:50:36.638Z,94.79
2023-01-10T06:51:36.612Z,94.79
2023-01-10T06:52:36.617Z,94.69
2023-01-10T06:53:36.584Z,94.69
2023-01-10T06:54:36.595Z,94.79
2023-01-10T06:55:36.556Z,94.79
2023-01-10T06:56:36.555Z,94.79
2023-01-10T06:57:36.601Z,94.79
2023-01-10T06:58:36.557Z,94.79
2023-01-10T06:59:36.513Z,94.79
2023-01-10T07:00:36.535Z,94.79
2023-01-10T07:01:36.521Z,94.79
2023-01-10T07:02:36.496Z,94.79
2023-01-10T07:03:36.562Z,94.90
2023-01-10T07:04:36.459Z,94.90
2023-01-10T07:05:36.460Z,94.79
2023-01-10T07:06:36.415Z,94.79
2023-01-10T07:07:36.377Z,94.79
2023-01-10T07:08:36.397Z,94.84
2023-01-10T07:09:36.387Z,94.94
2023-01-10T07:10:36.381Z,94.94
2023-01-10T07:11:36.368Z,95.04
2023-01-10T07:12:36.346Z,95.04
2023-01-10T07:13:36.302Z,95.15
2023-01-10T07:14:36.327Z,95.15
2023-01-10T07:15:36.289Z,95.25
2023-01-10T07:16:36.288Z,95.36
2023-01-10T07:17:36.289Z,95.46
2023-01-10T07:18:36.311Z,95.46
2023-01-10T07:19:36.260Z,95.46
2023-01-10T07:20:36.241Z,95.46
2023-01-10T07:21:36.202Z,95.46
2023-01-10T07:22:36.213Z,95.46
2023-01-10T07:23:36.198Z,95.42
2023-01-10T07:24:36.209Z,95.42
2023-01-10T07:25:36.170Z,95.52
2023-01-10T07:26:36.166Z,95.42
2023-01-10T07:27:36.149Z,95.42
2023-01-10T07:28:36.154Z,95.52
2023-01-10T07:29:36.111Z,95.42
2023-01-10T07:30:36.130Z,95.42
2023-01-10T07:31:36.162Z,95.52
2023-01-10T07:32:36.079Z,95.42
2023-01-10T07:33:36.091Z,95.52
2023-01-10T07:34:36.107Z,95.42
2023-01-10T07:35:36.026Z,95.42
2023-01-10T07:36:38.454Z,95.42
2023-01-10T07:37:35.987Z,95.42
2023-01-10T07:38:36.053Z,95.31
2023-01-10T07:39:35.985Z,95.31
2023-01-10T07:40:36.022Z,95.31
2023-01-10T07:41:35.955Z,95.31
2023-01-10T07:42:35.958Z,95.31
2023-01-10T07:43:35.922Z,95.31
2023-01-10T07:44:35.954Z,95.31
2023-01-10T07:45:35.897Z,95.31
2023-01-10T07:46:35.939Z,95.42
2023-01-10T07:47:35.871Z,95.42
2023-01-10T07:48:35.881Z,95.52
2023-01-10T07:49:35.899Z,95.42
2023-01-10T07:50:35.870Z,95.31
2023-01-10T07:51:35.826Z,95.31
2023-01-10T07:52:35.824Z,95.31
2023-01-10T07:53:35.821Z,95.31
2023-01-10T07:54:35.853Z,95.31
2023-01-10T07:55:35.768Z,95.10
2023-01-10T07:56:35.797Z,95.10
2023-01-10T07:57:35.737Z,95.21
2023-01-10T07:58:35.773Z,95.10
2023-01-10T07:59:35.710Z,95.10
2023-01-10T08:00:35.751Z,95.00
2023-01-10T08:01:35.704Z,95.10
2023-01-10T08:02:35.891Z,95.10
2023-01-10T08:03:35.822Z,95.10
2023-01-10T08:04:35.659Z,95.10
2023-01-10T08:05:35.652Z,95.00
2023-01-10T08:06:35.658Z,95.00
2023-01-10T08:07:35.617Z,94.90
2023-01-10T08:08:35.625Z,94.90
2023-01-10T08:09:35.584Z,94.90
2023-01-10T08:10:35.607Z,94.90
2023-01-10T08:11:35.595Z,94.79
2023-01-10T08:12:35.616Z,94.79
2023-01-10T08:13:35.593Z,94.59
2023-01-10T08:14:35.587Z,94.59
2023-01-10T08:15:35.504Z,94.48
2023-01-10T08:16:35.513Z,94.48
2023-01-10T08:17:35.492Z,94.48
2023-01-10T08:18:35.495Z,94.48
2023-01-10T08:19:35.454Z,94.48
2023-01-10T08:20:35.459Z,94.48
2023-01-10T08:21:35.425Z,94.38
2023-01-10T08:22:35.458Z,94.38
2023-01-10T08:23:35.395Z,94.34
2023-01-10T08:24:35.415Z,94.48
2023-01-10T08:25:35.529Z,94.44
2023-01-10T08:26:35.394Z,94.44
2023-01-10T08:27:35.360Z,94.34
2023-01-10T08:28:35.446Z,94.23
2023-01-10T08:29:35.313Z,94.44
2023-01-10T08:30:35.338Z,94.44
2023-01-10T08:31:35.386Z,94.44
2023-01-10T08:32:35.325Z,94.34
2023-01-10T08:33:35.286Z,94.23
2023-01-10T08:34:35.278Z,94.03
2023-01-10T08:35:35.245Z,93.93
2023-01-10T08:36:35.272Z,93.82
2023-01-10T08:37:35.221Z,93.72
2023-01-10T08:38:35.261Z,93.62
2023-01-10T08:39:35.201Z,93.62
2023-01-10T08:40:35.238Z,93.62
2023-01-10T08:41:35.171Z,93.51
2023-01-10T08:42:35.185Z,93.62
2023-01-10T08:43:35.149Z,93.72
2023-01-10T08:44:35.182Z,93.82
2023-01-10T08:45:35.118Z,93.57
2023-01-10T08:46:35.196Z,93.51
2023-01-10T08:47:35.100Z,93.47
2023-01-10T08:48:35.089Z,93.51
2023-01-10T08:49:35.059Z,93.57
2023-01-10T08:50:35.077Z,93.57
2023-01-10T08:51:35.063Z,93.47
2023-01-10T08:52:35.071Z,93.37
2023-01-10T08:53:35.020Z,93.37
2023-01-10T08:54:35.035Z,93.37
2023-01-10T08:55:34.966Z,93.26
2023-01-10T08:56:34.990Z,93.37
2023-01-10T08:57:34.987Z,93.37
2023-01-10T08:58:34.964Z,93.37
2023-01-10T08:59:34.940Z,93.26
2023-01-10T09:00:34.969Z,93.16
2023-01-10T09:01:35.076Z,93.05
2023-01-10T09:02:35.013Z,92.95
2023-01-10T09:03:34.885Z,92.74
2023-01-10T09:04:34.885Z,92.74
2023-01-10T09:05:34.845Z,92.64
2023-01-10T09:06:34.878Z,92.74
2023-01-10T09:07:34.821Z,92.85
2023-01-10T09:08:34.825Z,92.85
2023-01-10T09:09:34.824Z,92.74
2023-01-10T09:10:34.806Z,92.74
2023-01-10T09:11:34.847Z,92.85
2023-01-10T09:12:34.775Z,92.85
2023-01-10T09:13:34.781Z,92.70
2023-01-10T09:14:34.762Z,92.60
2023-01-10T09:15:34.766Z,92.50
2023-01-10T09:16:34.749Z,92.60
2023-01-10T09:17:34.703Z,92.80
2023-01-10T09:18:34.708Z,92.60
2023-01-10T09:19:34.681Z,92.60
2023-01-10T09:20:34.685Z,92.50
2023-01-10T09:21:34.630Z,92.70
2023-01-10T09:22:34.703Z,92.91
2023-01-10T09:23:36.916Z,92.70
2023-01-10T09:24:34.635Z,92.91
2023-01-10T09:25:34.594Z,92.91
2023-01-10T09:26:34.573Z,92.91
2023-01-10T09:27:34.588Z,92.91
2023-01-10T09:28:34.583Z,92.91
2023-01-10T09:29:34.571Z,92.91
2023-01-10T09:30:34.535Z,92.91
2023-01-10T09:31:34.585Z,92.80
2023-01-10T09:32:34.519Z,92.70
2023-01-10T09:33:45.932Z,92.60
2023-01-10T09:34:34.490Z,92.60
2023-01-10T09:35:34.473Z,92.60
2023-01-10T09:36:34.438Z,92.60
2023-01-10T09:37:34.458Z,92.60
2023-01-10T09:38:34.431Z,92.70
2023-01-10T09:39:34.437Z,92.80
2023-01-10T09:40:34.390Z,92.80
2023-01-10T09:41:34.428Z,92.80
2023-01-10T09:42:34.379Z,92.91
2023-01-10T09:43:34.379Z,92.80
2023-01-10T09:44:34.357Z,92.80
2023-01-10T09:45:34.342Z,92.70
2023-01-10T09:46:34.403Z,92.70
2023-01-10T09:47:34.416Z,92.80
2023-01-10T09:48:34.282Z,93.01
2023-01-10T09:49:34.386Z,93.12
2023-01-10T09:50:34.313Z,92.91
2023-01-10T09:51:35.580Z,92.91
2023-01-10T09:52:34.260Z,93.01
2023-01-10T09:53:34.250Z,92.91
2023-01-10T09:54:34.209Z,93.01
2023-01-10T09:55:34.216Z,93.22
2023-01-10T09:56:34.199Z,93.43
2023-01-10T09:57:34.194Z,93.53
2023-01-10T09:58:34.175Z,93.73
2023-01-10T09:59:34.180Z,93.43
2023-01-10T10:00:34.129Z,92.91
2023-01-10T10:01:34.145Z,92.80
2023-01-10T10:02:34.116Z,92.60
2023-01-10T10:03:34.236Z,92.40
2023-01-10T10:04:34.101Z,92.29
2023-01-10T10:05:34.103Z,92.29
2023-01-10T10:06:34.089Z,92.29
2023-01-10T10:07:34.074Z,92.40
2023-01-10T10:08:34.028Z,92.29
2023-01-10T10:09:34.055Z,92.29
2023-01-10T10:10:34.014Z,92.29
2023-01-10T10:11:34.001Z,92.25
2023-01-10T10:12:33.968Z,91.88
2023-01-10T10:13:33.980Z,91.63
2023-01-10T10:14:34.036Z,91.73
2023-01-10T10:15:33.967Z,91.94
2023-01-10T10:16:34.037Z,91.83
2023-01-10T10:17:33.960Z,91.94
2023-01-10T10:18:33.931Z,91.88
2023-01-10T10:19:33.925Z,91.83
2023-01-10T10:20:33.869Z,91.63
2023-01-10T10:21:33.885Z,91.42
2023-01-10T10:22:33.855Z,91.01
2023-01-10T10:23:34.467Z,91.11
2023-01-10T10:24:33.829Z,91.22
2023-01-10T10:25:33.825Z,91.42
2023-01-10T10:26:33.812Z,91.52
2023-01-10T10:27:33.843Z,91.32
2023-01-10T10:28:34.464Z,91.42
2023-01-10T10:29:33.805Z,91.52
2023-01-10T10:30:33.745Z,91.63
2023-01-10T10:31:33.892Z,91.73
2023-01-10T10:32:33.718Z,91.52
2023-01-10T10:33:33.728Z,91.58
2023-01-10T10:34:33.687Z,91.38
2023-01-10T10:35:33.730Z,91.17
2023-01-10T10:36:33.657Z,90.97
2023-01-10T10:37:33.684Z,90.76
2023-01-10T10:38:33.629Z,90.76
2023-01-10T10:39:33.677Z,90.76
2023-01-10T10:40:33.619Z,90.86
2023-01-10T10:41:33.621Z,90.97
2023-01-10T10:42:33.581Z,91.17
2023-01-10T10:43:33.591Z,90.76
2023-01-10T10:44:33.597Z,90.66
2023-01-10T10:45:33.680Z,90.76
2023-01-10T10:46:33.538Z,90.86
2023-01-10T10:47:33.554Z,90.55
2023-01-10T10:48:33.514Z,90.25
2023-01-10T10:49:33.526Z,90.35
2023-01-10T10:50:33.531Z,90.76
2023-01-10T10:51:33.511Z,91.17
2023-01-10T10:52:33.457Z,90.97
2023-01-10T10:53:33.483Z,90.76
2023-01-10T10:54:33.433Z,90.76
2023-01-10T10:55:33.463Z,90.35
2023-01-10T10:56:33.429Z,90.55
2023-01-10T10:57:33.442Z,90.66
2023-01-10T10:58:33.373Z,90.86
2023-01-10T10:59:33.399Z,90.86
2023-01-10T11:00:33.439Z,90.97
2023-01-10T11:01:33.448Z,90.14
2023-01-10T11:02:33.321Z,89.73
2023-01-10T11:03:33.332Z,89.83
2023-01-10T11:04:33.325Z,89.83
2023-01-10T11:05:33.332Z,90.10
2023-01-10T11:06:34.326Z,90.10
2023-01-10T11:07:34.197Z,90.00
2023-01-10T11:08:33.235Z,89.69
2023-01-10T11:09:33.272Z,89.48
2023-01-10T11:10:33.215Z,89.48
2023-01-10T11:11:33.273Z,89.69
2023-01-10T11:12:36.064Z,89.89
2023-01-10T11:13:33.236Z,89.89
2023-01-10T11:14:33.169Z,89.58
2023-01-10T11:15:33.181Z,89.44
2023-01-10T11:16:33.203Z,89.23
2023-01-10T11:17:33.151Z,89.13
2023-01-10T11:18:33.152Z,89.13
2023-01-10T11:19:33.121Z,89.44
2023-01-10T11:20:33.091Z,89.34
2023-01-10T11:21:33.108Z,89.44
2023-01-10T11:22:33.063Z,89.13
2023-01-10T11:23:33.119Z,88.89
2023-01-10T11:24:33.110Z,87.54
2023-01-10T11:25:33.087Z,87.24
2023-01-10T11:26:33.013Z,86.82
2023-01-10T11:27:33.046Z,86.72
2023-01-10T11:28:33.021Z,86.31
2023-01-10T11:29:33.000Z,86.21
2023-01-10T11:30:32.974Z,86.41
2023-01-10T11:31:33.028Z,86.72
2023-01-10T11:32:32.929Z,86.41
2023-01-10T11:33:32.933Z,86.31
2023-01-10T11:34:32.908Z,86.52
2023-01-10T11:35:32.912Z,86.10
2023-01-10T11:36:32.931Z,85.79
2023-01-10T11:37:32.948Z,85.69
2023-01-10T11:38:32.855Z,85.59
2023-01-10T11:39:32.924Z,86.00
2023-01-10T11:40:32.844Z,85.69
2023-01-10T11:41:32.837Z,85.38
2023-01-10T11:42:32.832Z,85.79
2023-01-10T11:43:32.801Z,86.21
2023-01-10T11:44:32.872Z,85.89
2023-01-10T11:45:32.886Z,86.31
2023-01-10T11:46:32.783Z,86.82
2023-01-10T11:47:38.116Z,87.03
2023-01-10T11:48:59.720Z,86.72
2023-01-10T11:49:32.746Z,86.10
2023-01-10T11:50:32.735Z,85.38
2023-01-10T11:51:32.691Z,85.59
2023-01-10T11:52:32.708Z,86.21
2023-01-10T11:53:32.703Z,86.21
2023-01-10T11:54:32.663Z,86.31
2023-01-10T11:55:32.632Z,86.10
2023-01-10T11:56:32.688Z,86.10
2023-01-10T11:57:32.632Z,86.21
2023-01-10T11:58:32.638Z,86.10
2023-01-10T11:59:32.603Z,86.10
2023-01-10T12:00:32.604Z,86.10
2023-01-10T12:01:32.596Z,85.79
2023-01-10T12:02:32.681Z,85.49
2023-01-10T12:03:32.558Z,85.59
2023-01-10T12:04:32.589Z,85.17
2023-01-10T12:05:32.512Z,85.07
2023-01-10T12:06:32.519Z,84.87
2023-01-10T12:07:32.530Z,84.77
2023-01-10T12:08:32.498Z,84.35
2023-01-10T12:09:32.462Z,84.25
2023-01-10T12:10:32.479Z,84.25
2023-01-10T12:11:32.437Z,83.94
2023-01-10T12:12:32.473Z,83.73
2023-01-10T12:13:32.396Z,84.00
2023-01-10T12:14:32.555Z,84.11
2023-01-10T12:15:32.372Z,84.11
2023-01-10T12:16:32.425Z,84.21
2023-01-10T12:17:32.407Z,83.90
2023-01-10T12:18:32.378Z,83.70
2023-01-10T12:19:32.316Z,83.49
2023-01-10T12:20:32.328Z,83.55
2023-01-10T12:21:32.314Z,83.04
2023-01-10T12:22:32.310Z,82.83
2023-01-10T12:23:32.309Z,82.63
2023-01-10T12:24:32.281Z,82.11
2023-01-10T12:25:32.250Z,82.63
2023-01-10T12:26:32.262Z,80.98
2023-01-10T12:27:32.255Z,81.29
2023-01-10T12:28:32.263Z,81.49
2023-01-10T12:29:32.225Z,81.70
2023-01-10T12:30:32.285Z,80.57
2023-01-10T12:31:32.163Z,79.75
2023-01-10T12:32:32.227Z,80.16
2023-01-10T12:33:32.142Z,80.47
2023-01-10T12:34:32.161Z,79.95
2023-01-10T12:35:32.140Z,79.75
2023-01-10T12:36:32.117Z,78.92
2023-01-10T12:37:32.125Z,78.92
2023-01-10T12:38:32.119Z,78.72
2023-01-10T12:39:32.061Z,78.00
2023-01-10T12:40:32.068Z,78.10
2023-01-10T12:41:32.042Z,77.96
2023-01-10T12:42:32.100Z,77.75
2023-01-10T12:43:32.024Z,78.06
2023-01-10T12:44:32.033Z,78.68
2023-01-10T12:45:31.984Z,78.58
2023-01-10T12:47:00.469Z,76.93
2023-01-10T12:47:32.077Z,76.31
2023-01-10T12:48:31.979Z,76.93
2023-01-10T12:49:31.934Z,75.90
2023-01-10T12:50:31.946Z,75.59
2023-01-10T12:51:31.915Z,75.70
2023-01-10T12:52:31.927Z,75.29